KSDY/SDY METAR and TAF weather

Enter ICAO airport designator
Station Type Date Time Source
KSDY METAR 2021/07/28 19:56 UTC NOAA

KSDY 281956Z AUTO 06010KT 10SM CLR 28/14 A3013 RMK AO2 SLP192 T02830144 PNO $


Station Type Date Time Source
KSDY Decoded METAR 2021/07/28 19:56 UTC NOAA

Sidney-Richland, MT, United States (KSDY) 47-42N 104-12W
Jul 28, 2021 - 03:56 PM EDT / 2021.07.28 1956 UTC
Wind: from the ENE (060 degrees) at 12 MPH (10 KT):0
Visibility: 10 mile(s):0
Sky conditions: clear
Temperature: 82.9 F (28.3 C)
Dew Point: 57.9 F (14.4 C)
Relative Humidity: 42%
Pressure (altimeter): 30.13 in. Hg (1020 hPa)
ob: KSDY 281956Z AUTO 06010KT 10SM CLR 28/14 A3013 RMK AO2 SLP192 T02830144 PNO
cycle: 20

Station Type Date Time Source
KSDY TAF 2021/07/28 18:45 UTC NOAA

TAF KSDY 281742Z 2818/2918 03012KT P6SM BKN100
FM290100 04012KT P6SM FEW200
FM290400 VRB06KT P6SM FEW160
FM291700 15009KT P6SM BKN100

Example: see airport list